Falken — SBCH — position and weather

sailwx.info

Track history (hours):
 
Tides and Currents Weather Stations Pressure Air Temp Water Temp Dewpoint Dewpoint Depression Visibility Wind Speed Wind Dir Waves Ship Positions

Falken (Sweden)

Last reported at 2014-Sep-25 00:33 UTC. Time now 2014-Oct-01 22:26 UTC.
Position N 36°42' W 007°51'.

Length 40 m; draft 4.2 m.

Type: Sailing vessel. MMSI: 265070000.

Date/timePositionNaut miles runAvg speedWind from/ knotsBaromVisibWave heightAir tempDewpointWater temp
2014-Sep-25 00:33N 36°42' W 007°51'7 6.5
2014-Sep-24 23:33N 36°43' W 007°59'7 7.0
2014-Sep-24 22:33N 36°44' W 008°08'7 7.3
2014-Sep-24 21:33N 36°45' W 008°17'7 6.7
2014-Sep-24 20:33N 36°47' W 008°25'6 6.3
2014-Sep-24 19:34N 36°48' W 008°32'7 7.4
2014-Sep-24 18:33N 36°50' W 008°42'12 6.2
2014-Sep-24 16:34N 36°55' W 008°55'  
2014-Sep-19 02:34N 48°09' W 005°58'6 6.4
2014-Sep-19 01:33N 48°13' W 005°51'6 6.0
2014-Sep-19 00:33N 48°16' W 005°43'6 6.1
2014-Sep-18 23:33N 48°20' W 005°35'6 5.8
2014-Sep-18 22:34N 48°23' W 005°29'6 5.8
2014-Sep-18 21:34N 48°26' W 005°21'6 6.2
2014-Sep-18 20:33N 48°30' W 005°13'7 6.8
2014-Sep-18 19:34N 48°33' W 005°04'7 6.8
2014-Sep-18 18:33N 48°37' W 004°56'  
2014-Sep-16 09:09N 49°45' W 002°10'1 2.4
2014-Sep-16 08:33N 49°46' W 002°09'0 0.1
2014-Sep-16 07:33N 49°46' W 002°09'  
Track history (hours):
 
Tides and Currents Weather Stations Pressure Air Temp Water Temp Dewpoint Dewpoint Depression Visibility Wind Speed Wind Dir Waves Ship Positions

Falken (Sweden)

Last reported at 2014-Sep-25 00:33 UTC. Time now 2014-Oct-01 22:26 UTC.
Position N 36°42' W 007°51'.

Length 40 m; draft 4.2 m.

Type: Sailing vessel. MMSI: 265070000.

Date/timePositionNaut miles runAvg speedWind from/ knotsBaromVisibWave heightAir tempDewpointWater temp
2014-Sep-25 00:33N 36°42' W 007°51'7 6.5
2014-Sep-24 23:33N 36°43' W 007°59'7 7.0
2014-Sep-24 22:33N 36°44' W 008°08'7 7.3
2014-Sep-24 21:33N 36°45' W 008°17'7 6.7
2014-Sep-24 20:33N 36°47' W 008°25'6 6.3
2014-Sep-24 19:34N 36°48' W 008°32'7 7.4
2014-Sep-24 18:33N 36°50' W 008°42'12 6.2
2014-Sep-24 16:34N 36°55' W 008°55'  
2014-Sep-19 02:34N 48°09' W 005°58'6 6.4
2014-Sep-19 01:33N 48°13' W 005°51'6 6.0
2014-Sep-19 00:33N 48°16' W 005°43'6 6.1
2014-Sep-18 23:33N 48°20' W 005°35'6 5.8
2014-Sep-18 22:34N 48°23' W 005°29'6 5.8
2014-Sep-18 21:34N 48°26' W 005°21'6 6.2
2014-Sep-18 20:33N 48°30' W 005°13'7 6.8
2014-Sep-18 19:34N 48°33' W 005°04'7 6.8
2014-Sep-18 18:33N 48°37' W 004°56'  
2014-Sep-16 09:09N 49°45' W 002°10'1 2.4
2014-Sep-16 08:33N 49°46' W 002°09'0 0.1
2014-Sep-16 07:33N 49°46' W 002°09'  

Dump ship's entire track history